sensor_id;sensor_type;location;lat;lon;timestamp;temperature;humidity
5086;DHT22;4715;51.660;7.082;2024-03-22T00:00:57;11.30;99.90
5086;DHT22;4715;51.660;7.082;2024-03-22T00:03:18;11.30;99.90
5086;DHT22;4715;51.660;7.082;2024-03-22T00:05:40;11.30;99.90
5086;DHT22;4715;51.660;7.082;2024-03-22T00:08:02;11.30;99.90
5086;DHT22;4715;51.660;7.082;2024-03-22T00:10:24;11.30;99.90
5086;DHT22;4715;51.660;7.082;2024-03-22T00:12:45;11.30;99.90
5086;DHT22;4715;51.660;7.082;2024-03-22T00:15:08;11.30;99.90
5086;DHT22;4715;51.660;7.082;2024-03-22T00:17:30;11.30;99.90
5086;DHT22;4715;51.660;7.082;2024-03-22T00:19:52;11.40;99.90
5086;DHT22;4715;51.660;7.082;2024-03-22T00:22:13;11.40;99.90
5086;DHT22;4715;51.660;7.082;2024-03-22T00:24:35;11.40;99.90
5086;DHT22;4715;51.660;7.082;2024-03-22T00:26:56;11.40;99.90
5086;DHT22;4715;51.660;7.082;2024-03-22T00:29:18;11.50;99.90
5086;DHT22;4715;51.660;7.082;2024-03-22T00:31:40;11.50;99.90
5086;DHT22;4715;51.660;7.082;2024-03-22T00:34:02;11.50;99.90
5086;DHT22;4715;51.660;7.082;2024-03-22T00:36:24;11.50;99.90
5086;DHT22;4715;51.660;7.082;2024-03-22T00:38:46;11.50;99.90
5086;DHT22;4715;51.660;7.082;2024-03-22T00:41:07;11.50;99.90
5086;DHT22;4715;51.660;7.082;2024-03-22T00:43:31;11.50;99.90
5086;DHT22;4715;51.660;7.082;2024-03-22T00:45:51;11.60;99.90
5086;DHT22;4715;51.660;7.082;2024-03-22T00:48:15;11.60;99.90
5086;DHT22;4715;51.660;7.082;2024-03-22T00:50:37;11.50;99.90
5086;DHT22;4715;51.660;7.082;2024-03-22T00:52:59;11.50;99.90
5086;DHT22;4715;51.660;7.082;2024-03-22T00:55:20;11.50;99.90
5086;DHT22;4715;51.660;7.082;2024-03-22T00:57:42;11.50;99.90
5086;DHT22;4715;51.660;7.082;2024-03-22T01:00:04;11.50;99.90
5086;DHT22;4715;51.660;7.082;2024-03-22T01:02:26;11.50;99.90
5086;DHT22;4715;51.660;7.082;2024-03-22T01:04:48;11.60;99.90
5086;DHT22;4715;51.660;7.082;2024-03-22T01:07:11;11.60;99.90
5086;DHT22;4715;51.660;7.082;2024-03-22T01:09:31;11.60;99.90
5086;DHT22;4715;51.660;7.082;2024-03-22T01:11:53;11.60;99.90
5086;DHT22;4715;51.660;7.082;2024-03-22T01:14:14;11.60;99.90
5086;DHT22;4715;51.660;7.082;2024-03-22T01:16:36;11.70;99.90
5086;DHT22;4715;51.660;7.082;2024-03-22T01:18:57;11.70;99.90
5086;DHT22;4715;51.660;7.082;2024-03-22T01:21:20;11.70;99.90
5086;DHT22;4715;51.660;7.082;2024-03-22T01:23:45;11.70;99.90
5086;DHT22;4715;51.660;7.082;2024-03-22T01:26:07;11.70;99.90
5086;DHT22;4715;51.660;7.082;2024-03-22T01:28:28;11.70;99.90
5086;DHT22;4715;51.660;7.082;2024-03-22T01:30:50;11.70;99.90
5086;DHT22;4715;51.660;7.082;2024-03-22T01:33:11;11.80;99.90
5086;DHT22;4715;51.660;7.082;2024-03-22T01:35:33;11.80;99.90
5086;DHT22;4715;51.660;7.082;2024-03-22T01:37:55;11.80;99.90
5086;DHT22;4715;51.660;7.082;2024-03-22T01:40:17;11.80;99.90
5086;DHT22;4715;51.660;7.082;2024-03-22T01:42:38;11.80;99.90
5086;DHT22;4715;51.660;7.082;2024-03-22T01:45:00;11.80;99.90
5086;DHT22;4715;51.660;7.082;2024-03-22T01:47:22;11.80;99.90
5086;DHT22;4715;51.660;7.082;2024-03-22T01:49:44;11.90;99.90
5086;DHT22;4715;51.660;7.082;2024-03-22T01:52:05;11.80;99.90
5086;DHT22;4715;51.660;7.082;2024-03-22T01:54:31;11.80;99.90
5086;DHT22;4715;51.660;7.082;2024-03-22T01:56:52;11.90;99.90
5086;DHT22;4715;51.660;7.082;2024-03-22T01:59:14;11.90;99.90
5086;DHT22;4715;51.660;7.082;2024-03-22T02:01:36;11.90;99.90
5086;DHT22;4715;51.660;7.082;2024-03-22T02:03:58;11.90;99.90
5086;DHT22;4715;51.660;7.082;2024-03-22T02:06:18;11.90;99.90
5086;DHT22;4715;51.660;7.082;2024-03-22T02:08:40;11.90;99.90
5086;DHT22;4715;51.660;7.082;2024-03-22T02:11:04;11.90;99.90
5086;DHT22;4715;51.660;7.082;2024-03-22T02:13:26;12.00;99.90
5086;DHT22;4715;51.660;7.082;2024-03-22T02:15:47;12.00;99.90
5086;DHT22;4715;51.660;7.082;2024-03-22T02:18:09;12.00;99.90
5086;DHT22;4715;51.660;7.082;2024-03-22T02:20:30;12.00;99.90
5086;DHT22;4715;51.660;7.082;2024-03-22T02:22:52;11.90;99.90
5086;DHT22;4715;51.660;7.082;2024-03-22T02:25:14;11.90;99.90
5086;DHT22;4715;51.660;7.082;2024-03-22T02:27:38;11.90;99.90
5086;DHT22;4715;51.660;7.082;2024-03-22T02:29:59;11.90;99.90
5086;DHT22;4715;51.660;7.082;2024-03-22T02:32:21;11.90;99.90
5086;DHT22;4715;51.660;7.082;2024-03-22T02:34:41;11.90;99.90
5086;DHT22;4715;51.660;7.082;2024-03-22T02:37:03;11.90;99.90
5086;DHT22;4715;51.660;7.082;2024-03-22T02:39:25;11.90;99.90
5086;DHT22;4715;51.660;7.082;2024-03-22T02:41:48;11.90;99.90
5086;DHT22;4715;51.660;7.082;2024-03-22T02:44:09;11.90;99.90
5086;DHT22;4715;51.660;7.082;2024-03-22T02:46:30;11.90;99.90
5086;DHT22;4715;51.660;7.082;2024-03-22T02:48:51;11.90;99.90
5086;DHT22;4715;51.660;7.082;2024-03-22T02:51:13;11.90;99.90
5086;DHT22;4715;51.660;7.082;2024-03-22T02:53:34;11.90;99.90
5086;DHT22;4715;51.660;7.082;2024-03-22T02:55:55;11.90;99.90
5086;DHT22;4715;51.660;7.082;2024-03-22T02:58:20;11.90;99.90
5086;DHT22;4715;51.660;7.082;2024-03-22T03:00:42;11.90;99.90
5086;DHT22;4715;51.660;7.082;2024-03-22T03:03:03;11.90;99.90
5086;DHT22;4715;51.660;7.082;2024-03-22T03:05:25;11.90;99.90
5086;DHT22;4715;51.660;7.082;2024-03-22T03:07:47;11.90;99.90
5086;DHT22;4715;51.660;7.082;2024-03-22T03:10:08;11.90;99.90
5086;DHT22;4715;51.660;7.082;2024-03-22T03:12:29;11.90;99.90
5086;DHT22;4715;51.660;7.082;2024-03-22T03:14:52;11.90;99.90
5086;DHT22;4715;51.660;7.082;2024-03-22T03:17:13;11.90;99.90
5086;DHT22;4715;51.660;7.082;2024-03-22T03:19:36;11.90;99.90
5086;DHT22;4715;51.660;7.082;2024-03-22T03:21:57;11.90;99.90
5086;DHT22;4715;51.660;7.082;2024-03-22T03:24:19;11.90;99.90
5086;DHT22;4715;51.660;7.082;2024-03-22T03:26:39;11.90;99.90
5086;DHT22;4715;51.660;7.082;2024-03-22T03:29:01;11.90;99.90
5086;DHT22;4715;51.660;7.082;2024-03-22T03:31:23;11.90;99.90
5086;DHT22;4715;51.660;7.082;2024-03-22T03:33:45;11.90;99.90
5086;DHT22;4715;51.660;7.082;2024-03-22T03:36:06;11.90;99.90
5086;DHT22;4715;51.660;7.082;2024-03-22T03:38:28;11.90;99.90
5086;DHT22;4715;51.660;7.082;2024-03-22T03:40:49;11.90;99.90
5086;DHT22;4715;51.660;7.082;2024-03-22T03:43:11;11.90;99.90
5086;DHT22;4715;51.660;7.082;2024-03-22T03:45:31;11.80;99.90
5086;DHT22;4715;51.660;7.082;2024-03-22T03:47:57;11.80;99.90
5086;DHT22;4715;51.660;7.082;2024-03-22T03:50:18;11.80;99.90
5086;DHT22;4715;51.660;7.082;2024-03-22T03:52:39;11.80;99.90
5086;DHT22;4715;51.660;7.082;2024-03-22T03:55:00;11.80;99.90
5086;DHT22;4715;51.660;7.082;2024-03-22T03:57:23;11.80;99.90
5086;DHT22;4715;51.660;7.082;2024-03-22T03:59:44;11.90;99.90
5086;DHT22;4715;51.660;7.082;2024-03-22T04:02:06;11.90;99.90
5086;DHT22;4715;51.660;7.082;2024-03-22T04:04:28;11.90;99.90
5086;DHT22;4715;51.660;7.082;2024-03-22T04:06:50;11.90;99.90
5086;DHT22;4715;51.660;7.082;2024-03-22T04:09:11;11.90;99.90
5086;DHT22;4715;51.660;7.082;2024-03-22T04:11:34;12.00;99.90
5086;DHT22;4715;51.660;7.082;2024-03-22T04:13:55;12.00;99.90
5086;DHT22;4715;51.660;7.082;2024-03-22T04:16:16;12.00;99.90
5086;DHT22;4715;51.660;7.082;2024-03-22T04:18:37;12.00;99.90
5086;DHT22;4715;51.660;7.082;2024-03-22T04:21:01;12.00;99.90
5086;DHT22;4715;51.660;7.082;2024-03-22T04:23:22;12.00;99.90
5086;DHT22;4715;51.660;7.082;2024-03-22T04:25:52;12.00;99.90
5086;DHT22;4715;51.660;7.082;2024-03-22T04:28:13;12.00;99.90
5086;DHT22;4715;51.660;7.082;2024-03-22T04:30:35;12.00;99.90
5086;DHT22;4715;51.660;7.082;2024-03-22T04:32:56;12.00;99.90
5086;DHT22;4715;51.660;7.082;2024-03-22T04:35:18;12.00;99.90
5086;DHT22;4715;51.660;7.082;2024-03-22T04:37:41;12.10;99.90
5086;DHT22;4715;51.660;7.082;2024-03-22T04:40:03;12.00;99.90
5086;DHT22;4715;51.660;7.082;2024-03-22T04:42:28;12.00;99.90
5086;DHT22;4715;51.660;7.082;2024-03-22T04:44:49;12.10;99.90
5086;DHT22;4715;51.660;7.082;2024-03-22T04:47:11;12.00;99.90
5086;DHT22;4715;51.660;7.082;2024-03-22T04:49:32;12.10;99.90
5086;DHT22;4715;51.660;7.082;2024-03-22T04:51:54;12.00;99.90
5086;DHT22;4715;51.660;7.082;2024-03-22T04:54:16;12.00;99.90
5086;DHT22;4715;51.660;7.082;2024-03-22T04:56:39;12.00;99.90
5086;DHT22;4715;51.660;7.082;2024-03-22T04:59:01;12.00;99.90
5086;DHT22;4715;51.660;7.082;2024-03-22T05:01:21;12.00;99.90
5086;DHT22;4715;51.660;7.082;2024-03-22T05:03:44;12.00;99.90
5086;DHT22;4715;51.660;7.082;2024-03-22T05:06:05;12.00;99.90
5086;DHT22;4715;51.660;7.082;2024-03-22T05:08:27;11.90;99.90
5086;DHT22;4715;51.660;7.082;2024-03-22T05:10:50;11.90;99.90
5086;DHT22;4715;51.660;7.082;2024-03-22T05:13:12;11.90;99.90
5086;DHT22;4715;51.660;7.082;2024-03-22T05:15:33;11.90;99.90
5086;DHT22;4715;51.660;7.082;2024-03-22T05:17:57;11.90;99.90
5086;DHT22;4715;51.660;7.082;2024-03-22T05:20:18;11.90;99.90
5086;DHT22;4715;51.660;7.082;2024-03-22T05:22:40;11.90;99.90
5086;DHT22;4715;51.660;7.082;2024-03-22T05:25:01;11.90;99.90
5086;DHT22;4715;51.660;7.082;2024-03-22T05:27:24;11.90;99.90
5086;DHT22;4715;51.660;7.082;2024-03-22T05:29:45;11.90;99.90
5086;DHT22;4715;51.660;7.082;2024-03-22T05:32:07;11.90;99.90
5086;DHT22;4715;51.660;7.082;2024-03-22T05:34:28;11.90;99.90
5086;DHT22;4715;51.660;7.082;2024-03-22T05:36:49;11.90;99.90
5086;DHT22;4715;51.660;7.082;2024-03-22T05:39:10;11.90;99.90
5086;DHT22;4715;51.660;7.082;2024-03-22T05:41:32;11.90;99.90
5086;DHT22;4715;51.660;7.082;2024-03-22T05:43:54;11.90;99.90
5086;DHT22;4715;51.660;7.082;2024-03-22T05:46:16;11.90;99.90
5086;DHT22;4715;51.660;7.082;2024-03-22T05:48:37;11.90;99.90
5086;DHT22;4715;51.660;7.082;2024-03-22T05:51:02;11.90;99.90
5086;DHT22;4715;51.660;7.082;2024-03-22T05:53:24;11.90;99.90
5086;DHT22;4715;51.660;7.082;2024-03-22T05:55:46;11.90;99.90
5086;DHT22;4715;51.660;7.082;2024-03-22T05:58:06;11.90;99.90
5086;DHT22;4715;51.660;7.082;2024-03-22T06:00:31;11.90;99.90
5086;DHT22;4715;51.660;7.082;2024-03-22T06:02:52;11.90;99.90
5086;DHT22;4715;51.660;7.082;2024-03-22T06:05:14;12.00;99.90
5086;DHT22;4715;51.660;7.082;2024-03-22T06:07:35;12.00;99.90
5086;DHT22;4715;51.660;7.082;2024-03-22T06:10:02;12.00;99.90
5086;DHT22;4715;51.660;7.082;2024-03-22T06:12:23;12.00;99.90
5086;DHT22;4715;51.660;7.082;2024-03-22T06:14:45;12.00;99.90
5086;DHT22;4715;51.660;7.082;2024-03-22T06:17:10;12.00;99.90
5086;DHT22;4715;51.660;7.082;2024-03-22T06:19:32;12.00;99.90
5086;DHT22;4715;51.660;7.082;2024-03-22T06:21:52;12.00;99.90
5086;DHT22;4715;51.660;7.082;2024-03-22T06:24:15;12.00;99.90
5086;DHT22;4715;51.660;7.082;2024-03-22T06:26:36;12.00;99.90
5086;DHT22;4715;51.660;7.082;2024-03-22T06:29:02;12.00;99.90
5086;DHT22;4715;51.660;7.082;2024-03-22T06:31:23;12.00;99.90
5086;DHT22;4715;51.660;7.082;2024-03-22T06:33:46;12.00;99.90
5086;DHT22;4715;51.660;7.082;2024-03-22T06:36:10;12.10;99.90
5086;DHT22;4715;51.660;7.082;2024-03-22T06:38:32;12.10;99.90
5086;DHT22;4715;51.660;7.082;2024-03-22T06:40:52;12.10;99.90
5086;DHT22;4715;51.660;7.082;2024-03-22T06:43:14;12.10;99.90
5086;DHT22;4715;51.660;7.082;2024-03-22T06:45:36;12.10;99.90
5086;DHT22;4715;51.660;7.082;2024-03-22T06:47:58;12.20;99.90
5086;DHT22;4715;51.660;7.082;2024-03-22T06:50:20;12.20;99.90
5086;DHT22;4715;51.660;7.082;2024-03-22T06:52:44;12.20;99.90
5086;DHT22;4715;51.660;7.082;2024-03-22T06:55:06;12.20;99.90
5086;DHT22;4715;51.660;7.082;2024-03-22T06:57:28;12.30;99.90
5086;DHT22;4715;51.660;7.082;2024-03-22T06:59:48;12.30;99.90
5086;DHT22;4715;51.660;7.082;2024-03-22T07:02:11;12.30;99.90
5086;DHT22;4715;51.660;7.082;2024-03-22T07:04:34;12.40;99.90
5086;DHT22;4715;51.660;7.082;2024-03-22T07:06:58;12.40;99.90
5086;DHT22;4715;51.660;7.082;2024-03-22T07:09:19;12.50;99.90
5086;DHT22;4715;51.660;7.082;2024-03-22T07:11:41;12.50;99.90
5086;DHT22;4715;51.660;7.082;2024-03-22T07:14:02;12.50;99.90
5086;DHT22;4715;51.660;7.082;2024-03-22T07:16:25;12.50;99.90
5086;DHT22;4715;51.660;7.082;2024-03-22T07:18:47;12.60;99.90
5086;DHT22;4715;51.660;7.082;2024-03-22T07:21:09;12.60;99.90
5086;DHT22;4715;51.660;7.082;2024-03-22T07:23:32;12.70;99.90
5086;DHT22;4715;51.660;7.082;2024-03-22T07:25:53;12.70;99.90
5086;DHT22;4715;51.660;7.082;2024-03-22T07:28:14;12.70;99.90
5086;DHT22;4715;51.660;7.082;2024-03-22T07:30:36;12.80;99.90
5086;DHT22;4715;51.660;7.082;2024-03-22T07:32:58;12.80;99.90
5086;DHT22;4715;51.660;7.082;2024-03-22T07:35:19;12.80;99.90
5086;DHT22;4715;51.660;7.082;2024-03-22T07:37:40;12.80;99.90
5086;DHT22;4715;51.660;7.082;2024-03-22T07:40:04;12.90;99.90
5086;DHT22;4715;51.660;7.082;2024-03-22T07:42:28;12.80;99.90
5086;DHT22;4715;51.660;7.082;2024-03-22T07:44:51;12.80;99.90
5086;DHT22;4715;51.660;7.082;2024-03-22T07:47:11;12.90;99.90
5086;DHT22;4715;51.660;7.082;2024-03-22T07:49:37;12.90;99.90
5086;DHT22;4715;51.660;7.082;2024-03-22T07:51:58;12.90;99.90
5086;DHT22;4715;51.660;7.082;2024-03-22T07:54:19;12.90;99.90
5086;DHT22;4715;51.660;7.082;2024-03-22T07:56:46;12.90;99.90
5086;DHT22;4715;51.660;7.082;2024-03-22T07:59:08;12.90;99.90
5086;DHT22;4715;51.660;7.082;2024-03-22T08:01:29;12.90;99.90
5086;DHT22;4715;51.660;7.082;2024-03-22T08:03:51;12.90;99.90
5086;DHT22;4715;51.660;7.082;2024-03-22T08:06:14;12.90;99.90
5086;DHT22;4715;51.660;7.082;2024-03-22T08:08:35;12.90;99.90
5086;DHT22;4715;51.660;7.082;2024-03-22T08:10:56;12.90;99.90
5086;DHT22;4715;51.660;7.082;2024-03-22T08:13:20;12.90;99.90
5086;DHT22;4715;51.660;7.082;2024-03-22T08:15:41;13.00;99.90
5086;DHT22;4715;51.660;7.082;2024-03-22T08:18:04;13.00;99.90
5086;DHT22;4715;51.660;7.082;2024-03-22T08:20:25;13.00;99.90
5086;DHT22;4715;51.660;7.082;2024-03-22T08:22:47;13.00;99.90
5086;DHT22;4715;51.660;7.082;2024-03-22T08:25:09;13.00;99.90
5086;DHT22;4715;51.660;7.082;2024-03-22T08:27:32;13.00;99.90
5086;DHT22;4715;51.660;7.082;2024-03-22T08:29:55;13.00;99.90
5086;DHT22;4715;51.660;7.082;2024-03-22T08:32:16;13.00;99.90
5086;DHT22;4715;51.660;7.082;2024-03-22T08:34:39;13.00;99.90
5086;DHT22;4715;51.660;7.082;2024-03-22T08:37:02;13.10;99.90
5086;DHT22;4715;51.660;7.082;2024-03-22T08:39:24;13.10;99.90
5086;DHT22;4715;51.660;7.082;2024-03-22T08:41:46;13.10;99.90
5086;DHT22;4715;51.660;7.082;2024-03-22T08:44:07;13.10;99.90
5086;DHT22;4715;51.660;7.082;2024-03-22T08:46:36;13.10;99.90
5086;DHT22;4715;51.660;7.082;2024-03-22T08:48:57;13.10;99.90
5086;DHT22;4715;51.660;7.082;2024-03-22T08:51:19;13.10;99.90
5086;DHT22;4715;51.660;7.082;2024-03-22T08:53:39;13.20;99.90
5086;DHT22;4715;51.660;7.082;2024-03-22T08:56:03;13.20;99.90
5086;DHT22;4715;51.660;7.082;2024-03-22T08:58:24;13.20;99.90
5086;DHT22;4715;51.660;7.082;2024-03-22T09:00:47;13.20;99.90
5086;DHT22;4715;51.660;7.082;2024-03-22T09:03:09;13.20;99.90
5086;DHT22;4715;51.660;7.082;2024-03-22T09:05:32;13.20;99.90
5086;DHT22;4715;51.660;7.082;2024-03-22T09:07:54;13.30;99.90
5086;DHT22;4715;51.660;7.082;2024-03-22T09:10:17;13.30;99.90
5086;DHT22;4715;51.660;7.082;2024-03-22T09:12:38;13.30;99.90
5086;DHT22;4715;51.660;7.082;2024-03-22T09:15:01;13.30;99.90
5086;DHT22;4715;51.660;7.082;2024-03-22T09:17:24;13.30;99.90
5086;DHT22;4715;51.660;7.082;2024-03-22T09:19:48;13.40;99.90
5086;DHT22;4715;51.660;7.082;2024-03-22T09:22:09;13.40;99.90
5086;DHT22;4715;51.660;7.082;2024-03-22T09:24:32;13.40;99.90
5086;DHT22;4715;51.660;7.082;2024-03-22T09:26:53;13.40;99.90
5086;DHT22;4715;51.660;7.082;2024-03-22T09:29:16;13.40;99.90
5086;DHT22;4715;51.660;7.082;2024-03-22T09:31:37;13.40;99.90
5086;DHT22;4715;51.660;7.082;2024-03-22T09:34:01;13.40;99.90
5086;DHT22;4715;51.660;7.082;2024-03-22T09:36:23;13.40;99.90
5086;DHT22;4715;51.660;7.082;2024-03-22T09:38:45;13.40;99.90
5086;DHT22;4715;51.660;7.082;2024-03-22T09:41:06;13.40;99.90
5086;DHT22;4715;51.660;7.082;2024-03-22T09:43:30;13.40;99.90
5086;DHT22;4715;51.660;7.082;2024-03-22T09:45:54;13.50;99.90
5086;DHT22;4715;51.660;7.082;2024-03-22T09:48:17;13.60;99.90
5086;DHT22;4715;51.660;7.082;2024-03-22T09:50:39;13.60;99.90
5086;DHT22;4715;51.660;7.082;2024-03-22T09:53:03;13.60;99.90
5086;DHT22;4715;51.660;7.082;2024-03-22T09:55:24;13.60;99.90
5086;DHT22;4715;51.660;7.082;2024-03-22T09:57:47;13.70;99.90
5086;DHT22;4715;51.660;7.082;2024-03-22T10:00:11;13.70;99.90
5086;DHT22;4715;51.660;7.082;2024-03-22T10:02:35;13.80;99.90
5086;DHT22;4715;51.660;7.082;2024-03-22T10:04:59;13.90;99.90
5086;DHT22;4715;51.660;7.082;2024-03-22T10:07:23;13.90;99.90
5086;DHT22;4715;51.660;7.082;2024-03-22T10:09:48;13.90;99.90
5086;DHT22;4715;51.660;7.082;2024-03-22T10:12:13;14.00;99.90
5086;DHT22;4715;51.660;7.082;2024-03-22T10:14:34;14.00;99.90
5086;DHT22;4715;51.660;7.082;2024-03-22T10:16:57;14.00;99.90
5086;DHT22;4715;51.660;7.082;2024-03-22T10:19:19;14.00;99.90
5086;DHT22;4715;51.660;7.082;2024-03-22T10:21:41;14.10;99.90
5086;DHT22;4715;51.660;7.082;2024-03-22T10:24:02;14.10;99.90
5086;DHT22;4715;51.660;7.082;2024-03-22T10:26:27;14.10;99.90
5086;DHT22;4715;51.660;7.082;2024-03-22T10:28:48;14.10;99.90
5086;DHT22;4715;51.660;7.082;2024-03-22T10:31:11;14.00;99.90
5086;DHT22;4715;51.660;7.082;2024-03-22T10:33:32;14.00;99.90
5086;DHT22;4715;51.660;7.082;2024-03-22T10:35:54;13.90;99.90
5086;DHT22;4715;51.660;7.082;2024-03-22T10:38:20;13.80;99.90
5086;DHT22;4715;51.660;7.082;2024-03-22T10:40:45;13.80;99.90
5086;DHT22;4715;51.660;7.082;2024-03-22T10:43:08;13.80;99.90
5086;DHT22;4715;51.660;7.082;2024-03-22T10:45:31;13.70;99.90
5086;DHT22;4715;51.660;7.082;2024-03-22T10:47:56;13.70;99.90
5086;DHT22;4715;51.660;7.082;2024-03-22T10:50:22;13.70;99.90
5086;DHT22;4715;51.660;7.082;2024-03-22T10:52:47;13.70;99.90
5086;DHT22;4715;51.660;7.082;2024-03-22T10:55:13;13.70;99.90
5086;DHT22;4715;51.660;7.082;2024-03-22T10:57:37;13.70;99.90
5086;DHT22;4715;51.660;7.082;2024-03-22T11:00:04;13.60;99.90
5086;DHT22;4715;51.660;7.082;2024-03-22T11:02:33;13.60;99.90
5086;DHT22;4715;51.660;7.082;2024-03-22T11:04:57;13.60;99.90
5086;DHT22;4715;51.660;7.082;2024-03-22T11:07:20;13.60;99.90
5086;DHT22;4715;51.660;7.082;2024-03-22T11:09:56;13.60;99.90
5086;DHT22;4715;51.660;7.082;2024-03-22T11:12:18;13.60;99.90
5086;DHT22;4715;51.660;7.082;2024-03-22T11:14:42;13.60;99.90
5086;DHT22;4715;51.660;7.082;2024-03-22T11:17:05;13.60;99.90
5086;DHT22;4715;51.660;7.082;2024-03-22T11:19:27;13.60;99.90
5086;DHT22;4715;51.660;7.082;2024-03-22T11:21:49;13.60;99.90
5086;DHT22;4715;51.660;7.082;2024-03-22T11:24:12;13.60;99.90
5086;DHT22;4715;51.660;7.082;2024-03-22T11:26:33;13.60;99.90
5086;DHT22;4715;51.660;7.082;2024-03-22T11:28:58;13.60;99.90
5086;DHT22;4715;51.660;7.082;2024-03-22T11:31:19;13.60;99.90
5086;DHT22;4715;51.660;7.082;2024-03-22T11:33:46;13.50;99.90
5086;DHT22;4715;51.660;7.082;2024-03-22T11:36:09;13.50;99.90
5086;DHT22;4715;51.660;7.082;2024-03-22T11:38:31;13.40;99.90
5086;DHT22;4715;51.660;7.082;2024-03-22T11:40:53;13.40;99.90
5086;DHT22;4715;51.660;7.082;2024-03-22T11:43:15;13.40;99.90
5086;DHT22;4715;51.660;7.082;2024-03-22T11:45:37;13.40;99.90
5086;DHT22;4715;51.660;7.082;2024-03-22T11:48:03;13.30;99.90
5086;DHT22;4715;51.660;7.082;2024-03-22T11:50:25;13.40;99.90
5086;DHT22;4715;51.660;7.082;2024-03-22T11:52:47;13.40;99.90
5086;DHT22;4715;51.660;7.082;2024-03-22T11:55:10;13.30;99.90
5086;DHT22;4715;51.660;7.082;2024-03-22T11:57:32;13.40;99.90
5086;DHT22;4715;51.660;7.082;2024-03-22T11:59:59;13.30;99.90
5086;DHT22;4715;51.660;7.082;2024-03-22T12:02:21;13.30;99.90
5086;DHT22;4715;51.660;7.082;2024-03-22T12:04:46;13.30;99.90
5086;DHT22;4715;51.660;7.082;2024-03-22T12:07:12;13.30;99.90
5086;DHT22;4715;51.660;7.082;2024-03-22T12:09:34;13.30;99.90
5086;DHT22;4715;51.660;7.082;2024-03-22T12:11:56;13.30;99.90
5086;DHT22;4715;51.660;7.082;2024-03-22T12:14:16;13.20;99.90
5086;DHT22;4715;51.660;7.082;2024-03-22T12:16:39;13.20;99.90
5086;DHT22;4715;51.660;7.082;2024-03-22T12:19:01;13.10;99.90
5086;DHT22;4715;51.660;7.082;2024-03-22T12:21:23;13.10;99.90
5086;DHT22;4715;51.660;7.082;2024-03-22T12:23:46;13.10;99.90
5086;DHT22;4715;51.660;7.082;2024-03-22T12:26:11;13.00;99.90
5086;DHT22;4715;51.660;7.082;2024-03-22T12:28:32;13.00;99.90
5086;DHT22;4715;51.660;7.082;2024-03-22T12:30:54;13.00;99.90
5086;DHT22;4715;51.660;7.082;2024-03-22T12:33:15;13.00;99.90
5086;DHT22;4715;51.660;7.082;2024-03-22T12:35:38;13.00;99.90
5086;DHT22;4715;51.660;7.082;2024-03-22T12:37:59;13.00;99.90
5086;DHT22;4715;51.660;7.082;2024-03-22T12:40:27;13.00;99.90
5086;DHT22;4715;51.660;7.082;2024-03-22T12:42:49;12.90;99.90
5086;DHT22;4715;51.660;7.082;2024-03-22T12:45:11;12.80;99.90
5086;DHT22;4715;51.660;7.082;2024-03-22T12:47:32;12.90;99.90
5086;DHT22;4715;51.660;7.082;2024-03-22T12:49:54;12.80;99.90
5086;DHT22;4715;51.660;7.082;2024-03-22T12:52:15;12.80;99.90
5086;DHT22;4715;51.660;7.082;2024-03-22T12:54:37;12.80;99.90
5086;DHT22;4715;51.660;7.082;2024-03-22T12:56:59;12.80;99.90
5086;DHT22;4715;51.660;7.082;2024-03-22T12:59:21;12.80;99.90
5086;DHT22;4715;51.660;7.082;2024-03-22T13:01:42;12.70;99.90
5086;DHT22;4715;51.660;7.082;2024-03-22T13:04:06;12.60;99.90
5086;DHT22;4715;51.660;7.082;2024-03-22T13:06:28;12.60;99.90
5086;DHT22;4715;51.660;7.082;2024-03-22T13:08:49;12.50;99.90
5086;DHT22;4715;51.660;7.082;2024-03-22T13:11:11;12.50;99.90
5086;DHT22;4715;51.660;7.082;2024-03-22T13:13:34;12.50;99.90
5086;DHT22;4715;51.660;7.082;2024-03-22T13:15:58;12.50;99.90
5086;DHT22;4715;51.660;7.082;2024-03-22T13:18:22;12.50;99.90
5086;DHT22;4715;51.660;7.082;2024-03-22T13:20:43;12.50;99.90
5086;DHT22;4715;51.660;7.082;2024-03-22T13:23:08;12.50;99.90
5086;DHT22;4715;51.660;7.082;2024-03-22T13:25:29;12.50;99.90
5086;DHT22;4715;51.660;7.082;2024-03-22T13:27:52;12.40;99.90
5086;DHT22;4715;51.660;7.082;2024-03-22T13:30:15;12.40;99.90
5086;DHT22;4715;51.660;7.082;2024-03-22T13:32:45;12.40;99.90
5086;DHT22;4715;51.660;7.082;2024-03-22T13:35:06;12.30;99.90
5086;DHT22;4715;51.660;7.082;2024-03-22T13:37:29;12.30;99.90
5086;DHT22;4715;51.660;7.082;2024-03-22T13:39:50;12.30;99.90
5086;DHT22;4715;51.660;7.082;2024-03-22T13:42:12;12.30;99.90
5086;DHT22;4715;51.660;7.082;2024-03-22T13:44:33;12.30;99.90
5086;DHT22;4715;51.660;7.082;2024-03-22T13:46:59;12.30;99.90
5086;DHT22;4715;51.660;7.082;2024-03-22T13:49:20;12.30;99.90
5086;DHT22;4715;51.660;7.082;2024-03-22T13:51:43;12.30;99.90
5086;DHT22;4715;51.660;7.082;2024-03-22T13:54:05;12.30;99.90
5086;DHT22;4715;51.660;7.082;2024-03-22T13:56:27;12.30;99.90
5086;DHT22;4715;51.660;7.082;2024-03-22T13:58:48;12.30;99.90
5086;DHT22;4715;51.660;7.082;2024-03-22T14:01:10;12.30;99.90
5086;DHT22;4715;51.660;7.082;2024-03-22T14:03:33;12.30;99.90
5086;DHT22;4715;51.660;7.082;2024-03-22T14:05:59;12.30;99.90
5086;DHT22;4715;51.660;7.082;2024-03-22T14:08:20;12.20;99.90
5086;DHT22;4715;51.660;7.082;2024-03-22T14:10:45;12.20;99.90
5086;DHT22;4715;51.660;7.082;2024-03-22T14:13:13;12.20;99.90
5086;DHT22;4715;51.660;7.082;2024-03-22T14:15:37;12.10;99.90
5086;DHT22;4715;51.660;7.082;2024-03-22T14:17:59;12.10;99.90
5086;DHT22;4715;51.660;7.082;2024-03-22T14:20:23;12.00;99.90
5086;DHT22;4715;51.660;7.082;2024-03-22T14:22:45;12.00;99.90
5086;DHT22;4715;51.660;7.082;2024-03-22T14:25:08;11.90;99.90
5086;DHT22;4715;51.660;7.082;2024-03-22T14:27:29;11.90;99.90
5086;DHT22;4715;51.660;7.082;2024-03-22T14:29:52;11.90;99.90
5086;DHT22;4715;51.660;7.082;2024-03-22T14:32:14;11.90;99.90
5086;DHT22;4715;51.660;7.082;2024-03-22T14:34:35;11.80;99.90
5086;DHT22;4715;51.660;7.082;2024-03-22T14:37:00;11.80;99.90
5086;DHT22;4715;51.660;7.082;2024-03-22T14:39:21;11.80;99.90
5086;DHT22;4715;51.660;7.082;2024-03-22T14:41:43;11.80;99.90
5086;DHT22;4715;51.660;7.082;2024-03-22T14:44:15;11.80;99.90
5086;DHT22;4715;51.660;7.082;2024-03-22T14:46:39;11.80;99.90
5086;DHT22;4715;51.660;7.082;2024-03-22T14:49:00;11.70;99.90
5086;DHT22;4715;51.660;7.082;2024-03-22T14:51:26;11.60;99.90
5086;DHT22;4715;51.660;7.082;2024-03-22T14:53:50;11.60;99.90
5086;DHT22;4715;51.660;7.082;2024-03-22T14:56:16;11.50;99.90
5086;DHT22;4715;51.660;7.082;2024-03-22T14:58:39;11.50;99.90
5086;DHT22;4715;51.660;7.082;2024-03-22T15:01:02;11.40;99.90
5086;DHT22;4715;51.660;7.082;2024-03-22T15:03:24;11.40;99.90
5086;DHT22;4715;51.660;7.082;2024-03-22T15:05:46;11.40;99.90
5086;DHT22;4715;51.660;7.082;2024-03-22T15:08:07;11.40;99.90
5086;DHT22;4715;51.660;7.082;2024-03-22T15:10:32;11.40;99.90
5086;DHT22;4715;51.660;7.082;2024-03-22T15:12:53;11.40;99.90
5086;DHT22;4715;51.660;7.082;2024-03-22T15:15:15;11.30;99.90
5086;DHT22;4715;51.660;7.082;2024-03-22T15:17:36;11.30;99.90
5086;DHT22;4715;51.660;7.082;2024-03-22T15:19:58;11.20;99.90
5086;DHT22;4715;51.660;7.082;2024-03-22T15:22:19;11.20;99.90
5086;DHT22;4715;51.660;7.082;2024-03-22T15:24:43;11.20;99.90
5086;DHT22;4715;51.660;7.082;2024-03-22T15:27:05;11.20;99.90
5086;DHT22;4715;51.660;7.082;2024-03-22T15:29:28;11.20;99.90